• Join FlightAware (Why Join?)
  • Login
  • US Flag 
05:09AM EDT


 

Airport Tracker/Info


-or-


 

Live Flight TrackerFlight Track Log ✈ AFL150 ✈ 28-Jan-2014 ✈ UUEE / SVO - MUHA / HAV

Flight Track Log - Related Links

Times and Time Zones

All times are in EST time to prevent confusion due to time zone crossing. See the AFL150 flight status page for this flight to view local times or setup timezone preferences in your user account.

Time Position Orientation Groundspeed Altitude Reporting Facility
EST Latitude Longitude Course Direction KTS MPH feet Rate Location/Type
09:00AM 56.2594 37.0564 317° Northwest  Level FlightAware Approximate
09:01AM 56.3474 36.9052 316° Northwest  Level FlightAware Approximate
09:02AM 56.4352 36.7532 316° Northwest  Level FlightAware Approximate
09:03AM 56.5228 36.6006 316° Northwest  Level FlightAware Approximate
09:04AM 56.6103 36.4472 316° Northwest  Level FlightAware Approximate
09:05AM 56.6975 36.2931 316° Northwest  Level FlightAware Approximate
09:06AM 56.7846 36.1384 316° Northwest  Level FlightAware Approximate
09:07AM 56.8714 35.9829 316° Northwest  Level FlightAware Approximate
09:08AM 56.9581 35.8266 316° Northwest  Level FlightAware Approximate
09:09AM 57.0446 35.6697 315° West  Level FlightAware Approximate
09:10AM 57.1309 35.5120 315° West  Level FlightAware Approximate
09:11AM 57.2169 35.3536 315° West  Level FlightAware Approximate
09:12AM 57.3028 35.1944 315° West  Level FlightAware Approximate
09:13AM 57.3885 35.0345 315° West  Level FlightAware Approximate
09:14AM 57.4740 34.8739 315° West  Level FlightAware Approximate
09:15AM 57.5592 34.7125 315° West  Level FlightAware Approximate
09:16AM 57.6029 34.6287 314° West  Level FlightAware Approximate
09:17AM 57.6870 34.4646 314° West  Level FlightAware Approximate
09:18AM 57.7708 34.2997 314° West  Level FlightAware Approximate
09:19AM 57.8545 34.1340 314° West  Level FlightAware Approximate
09:20AM 57.9379 33.9676 313° West  Level FlightAware Approximate
09:21AM 58.0211 33.8004 313° West  Level FlightAware Approximate
09:22AM 58.1041 33.6324 313° West  Level FlightAware Approximate
09:23AM 58.1869 33.4637 313° West  Level FlightAware Approximate
09:24AM 58.2695 33.2941 313° West  Level FlightAware Approximate
09:25AM 58.3518 33.1238 313° West  Level FlightAware Approximate
09:26AM 58.4339 32.9527 313° West  Level FlightAware Approximate
09:27AM 58.5158 32.7807 312° West  Level FlightAware Approximate
09:28AM 58.5974 32.6080 312° West  Level FlightAware Approximate
09:29AM 58.6788 32.4345 312° West  Level FlightAware Approximate
09:30AM 58.7600 32.2601 312° West  Level FlightAware Approximate
09:31AM 58.8410 32.0849 312° West  Level FlightAware Approximate
09:32AM 58.9216 31.9090 312° West  Level FlightAware Approximate
09:33AM 59.0021 31.7321 312° West  Level FlightAware Approximate
09:34AM 59.0823 31.5545 311° West  Level FlightAware Approximate
09:35AM 59.1623 31.3760 311° West  Level FlightAware Approximate
09:36AM 59.2420 31.1967 311° West  Level FlightAware Approximate
09:37AM 59.3215 31.0166 311° West  Level FlightAware Approximate
09:38AM 59.4007 30.8356 311° West  Level FlightAware Approximate
09:39AM 59.4797 30.6538 311° West  Level FlightAware Approximate
09:40AM 59.5584 30.4711 310° West  Level FlightAware Approximate
09:41AM 59.6369 30.2876 310° West  Level FlightAware Approximate
09:42AM 59.7151 30.1032 310° West  Level FlightAware Approximate
09:43AM 59.7931 29.9179 310° West  Level FlightAware Approximate
09:44AM 59.8708 29.7318 310° West  Level FlightAware Approximate
09:45AM 59.9482 29.5448 310° West  Level FlightAware Approximate
09:46AM 60.0254 29.3569 309° West  Level FlightAware Approximate
09:47AM 60.1022 29.1681 309° West  Level FlightAware Approximate
09:48AM 60.1789 28.9785 309° West  Level FlightAware Approximate
09:49AM 60.2552 28.7880 309° West  Level FlightAware Approximate
09:50AM 60.3313 28.5966 309° West  Level FlightAware Approximate
09:51AM 60.4071 28.4043 309° West  Level FlightAware Approximate
09:52AM 60.4826 28.2111 308° West  Level FlightAware Approximate
09:53AM 60.5579 28.0170 308° West  Level FlightAware Approximate
09:54AM 60.6328 27.8220 308° West  Level FlightAware Approximate
09:55AM 60.7075 27.6261 308° West  Level FlightAware Approximate
09:56AM 60.7819 27.4293 308° West  Level FlightAware Approximate
09:57AM 60.8560 27.2316 308° West  Level FlightAware Approximate
09:58AM 60.9298 27.0329 307° West  Level FlightAware Approximate
09:59AM 61.0033 26.8334 307° West  Level FlightAware Approximate
10:00AM 61.0765 26.6329 307° West  Level FlightAware Approximate
10:01AM 61.1494 26.4315 307° West  Level FlightAware Approximate
10:02AM 61.2221 26.2291 307° West  Level FlightAware Approximate
10:03AM 61.2944 26.0258 307° West  Level FlightAware Approximate
10:04AM 61.3664 25.8216 306° West  Level FlightAware Approximate
10:05AM 61.4381 25.6165 306° West  Level FlightAware Approximate
10:06AM 61.5095 25.4104 306° West  Level FlightAware Approximate
10:07AM 61.5806 25.2033 306° West  Level FlightAware Approximate
10:08AM 61.6513 24.9953 306° West  Level FlightAware Approximate
10:09AM 61.7215 24.7859 305° West  Level FlightAware Approximate
10:10AM 61.7912 24.5754 305° West  Level FlightAware Approximate
10:11AM 61.8606 24.3640 305° West  Level FlightAware Approximate
10:12AM 61.9297 24.1516 305° West  Level FlightAware Approximate
10:13AM 61.9985 23.9382 305° West  Level FlightAware Approximate
10:14AM 62.0669 23.7239 304° West  Level FlightAware Approximate
10:15AM 62.1350 23.5086 304° West  Level FlightAware Approximate
10:16AM 62.2028 23.2924 304° West  Level FlightAware Approximate
10:17AM 62.2702 23.0751 304° West  Level FlightAware Approximate
10:18AM 62.3373 22.8570 304° West  Level FlightAware Approximate
10:19AM 62.4040 22.6378 303° West  Level FlightAware Approximate
10:20AM 62.4704 22.4176 303° West  Level FlightAware Approximate
10:21AM 62.5365 22.1965 303° West  Level FlightAware Approximate
10:22AM 62.6022 21.9744 303° West  Level FlightAware Approximate
10:23AM 62.6675 21.7513 303° West  Level FlightAware Approximate
10:24AM 62.7325 21.5273 302° West  Level FlightAware Approximate
10:25AM 62.7971 21.3022 302° West  Level FlightAware Approximate
10:26AM 62.8614 21.0762 302° West  Level FlightAware Approximate
10:27AM 62.9253 20.8491 302° West  Level FlightAware Approximate
10:28AM 62.9888 20.6211 302° West  Level FlightAware Approximate
10:29AM 63.0520 20.3921 301° West  Level FlightAware Approximate
10:30AM 63.1148 20.1621 301° West  Level FlightAware Approximate
10:31AM 63.1772 19.9311 301° West  Level FlightAware Approximate
10:32AM 63.2393 19.6991 301° West  Level FlightAware Approximate
10:33AM 63.3009 19.4661 301° West  Level FlightAware Approximate
10:34AM 63.3622 19.2321 300° West  Level FlightAware Approximate
10:35AM 63.4231 18.9971 300° West  Level FlightAware Approximate
10:36AM 63.4836 18.7611 300° West  Level FlightAware Approximate
10:37AM 63.5438 18.5242 300° West  Level FlightAware Approximate
10:38AM 63.6035 18.2862 300° West  Level FlightAware Approximate
10:39AM 63.6630 18.0474 299° West  Level FlightAware Approximate
10:40AM 63.7221 17.8077 299° West  Level FlightAware Approximate
10:41AM 63.7808 17.5669 299° West  Level FlightAware Approximate
10:42AM 63.8392 17.3252 299° West  Level FlightAware Approximate
10:43AM 63.8971 17.0825 299° West  Level FlightAware Approximate
10:44AM 63.9546 16.8387 298° West  Level FlightAware Approximate
10:45AM 64.0117 16.5940 298° West  Level FlightAware Approximate
10:46AM 64.0684 16.3483 298° West  Level FlightAware Approximate
10:47AM 64.1247 16.1015 298° West  Level FlightAware Approximate
10:48AM 64.1805 15.8538 297° West  Level FlightAware Approximate
10:49AM 64.2359 15.6051 297° West  Level FlightAware Approximate
10:50AM 64.2910 15.3553 297° West  Level FlightAware Approximate
10:51AM 64.3455 15.1046 297° West  Level FlightAware Approximate
10:52AM 64.3997 14.8529 297° West  Level FlightAware Approximate
10:53AM 64.4534 14.6002 296° West  Level FlightAware Approximate
10:54AM 64.5067 14.3465 296° West  Level FlightAware Approximate
10:55AM 64.5595 14.0919 296° West  Level FlightAware Approximate
10:56AM 64.6120 13.8362 296° West  Level FlightAware Approximate
10:57AM 64.6639 13.5795 295° West  Level FlightAware Approximate
10:58AM 64.7154 13.3219 295° West  Level FlightAware Approximate
10:59AM 64.7665 13.0633 295° West  Level FlightAware Approximate
11:00AM 64.8171 12.8037 295° West  Level FlightAware Approximate
11:01AM 64.8674 12.5433 294° West  Level FlightAware Approximate
11:02AM 64.9174 12.2821 294° West  Level FlightAware Approximate
11:03AM 64.9669 12.0199 294° West  Level FlightAware Approximate
11:04AM 65.0160 11.7568 294° West  Level FlightAware Approximate
11:05AM 65.0646 11.4927 294° West  Level FlightAware Approximate
11:06AM 65.1128 11.2276 293° West  Level FlightAware Approximate
11:07AM 65.1605 10.9615 293° West  Level FlightAware Approximate
11:08AM 65.2077 10.6946 293° West  Level FlightAware Approximate
11:09AM 65.2544 10.4266 293° West  Level FlightAware Approximate
11:10AM 65.3007 10.1578 292° West  Level FlightAware Approximate
11:11AM 65.3465 9.8879 292° West  Level FlightAware Approximate
11:12AM 65.3917 9.6172 292° West  Level FlightAware Approximate
11:13AM 65.4366 9.3455 292° West  Level FlightAware Approximate
11:14AM 65.4809 9.0729 291° West  Level FlightAware Approximate
11:15AM 65.5247 8.7994 291° West  Level FlightAware Approximate
11:16AM 65.5680 8.5249 291° West  Level FlightAware Approximate
11:17AM 65.6109 8.2496 291° West  Level FlightAware Approximate
11:18AM 65.6532 7.9733 291° West  Level FlightAware Approximate
11:19AM 65.6951 7.6961 290° West  Level FlightAware Approximate
11:20AM 65.7364 7.4181 290° West  Level FlightAware Approximate
11:21AM 65.7772 7.1392 290° West  Level FlightAware Approximate
11:22AM 65.8175 6.8593 289° West  Level FlightAware Approximate
11:23AM 65.8573 6.5786 289° West  Level FlightAware Approximate
11:24AM 65.8966 6.2971 289° West  Level FlightAware Approximate
11:25AM 65.9354 6.0147 289° West  Level FlightAware Approximate
11:26AM 65.9736 5.7314 288° West  Level FlightAware Approximate
11:27AM 66.0114 5.4473 288° West  Level FlightAware Approximate
11:28AM 66.0486 5.1623 288° West  Level FlightAware Approximate
11:29AM 66.0852 4.8766 288° West  Level FlightAware Approximate
11:30AM 66.1214 4.5900 287° West  Level FlightAware Approximate
11:31AM 66.1570 4.3026 287° West  Level FlightAware Approximate
11:32AM 66.1920 4.0143 287° West  Level FlightAware Approximate
11:33AM 66.2266 3.7253 287° West  Level FlightAware Approximate
11:34AM 66.2606 3.4356 286° West  Level FlightAware Approximate
11:35AM 66.2941 3.1450 286° West  Level FlightAware Approximate
11:36AM 66.3270 2.8537 286° West  Level FlightAware Approximate
11:37AM 66.3593 2.5616 286° West  Level FlightAware Approximate
11:38AM 66.3912 2.2687 285° West  Level FlightAware Approximate
11:39AM 66.4224 1.9751 285° West  Level FlightAware Approximate
11:40AM 66.4531 1.6808 285° West  Level FlightAware Approximate
11:41AM 66.4833 1.3858 284° West  Level FlightAware Approximate
11:42AM 66.5129 1.0901 284° West  Level FlightAware Approximate
11:43AM 66.5420 0.7936 284° West  Level FlightAware Approximate
11:44AM 66.5705 0.4965 284° West  Level FlightAware Approximate
11:45AM 66.5984 0.1987 283° West  Level FlightAware Approximate
11:46AM 66.6256 -0.0998 283° West  Level FlightAware Approximate
11:47AM 66.6521 -0.3991 283° West  Level FlightAware Approximate
11:48AM 66.6780 -0.6990 282° West  Level FlightAware Approximate
11:49AM 66.7033 -0.9996 282° West  Level FlightAware Approximate
11:50AM 66.7281 -1.3007 282° West  Level FlightAware Approximate
11:51AM 66.7523 -1.6025 282° West  Level FlightAware Approximate
11:52AM 66.7759 -1.9048 281° West  Level FlightAware Approximate
11:53AM 66.7989 -2.2077 281° West  Level FlightAware Approximate
11:54AM 66.8214 -2.5112 281° West  Level FlightAware Approximate
11:55AM 66.8432 -2.8152 280° West  Level FlightAware Approximate
11:56AM 66.8645 -3.1198 280° West  Level FlightAware Approximate
11:57AM 66.8852 -3.4249 280° West  Level FlightAware Approximate
11:58AM 66.9053 -3.7305 280° West  Level FlightAware Approximate
11:59AM 66.9248 -4.0366 279° West  Level FlightAware Approximate
12:00PM 66.9438 -4.3431 279° West  Level FlightAware Approximate
12:01PM 66.9621 -4.6502 279° West  Level FlightAware Approximate
12:02PM 66.9798 -4.9577 279° West  Level FlightAware Approximate
12:03PM 66.9970 -5.2656 278° West  Level FlightAware Approximate
12:04PM 67.0135 -5.5740 278° West  Level FlightAware Approximate
12:05PM 67.0295 -5.8828 278° West  Level FlightAware Approximate
12:06PM 67.0448 -6.1919 277° West  Level FlightAware Approximate
12:07PM 67.0596 -6.5015 277° West  Level FlightAware Approximate
12:08PM 67.0737 -6.8114 277° West  Level FlightAware Approximate
12:09PM 67.0873 -7.1217 277° West  Level FlightAware Approximate
12:10PM 67.1002 -7.4323 276° West  Level FlightAware Approximate
12:11PM 67.1126 -7.7433 276° West  Level FlightAware Approximate
12:12PM 67.1243 -8.0545 276° West  Level FlightAware Approximate
12:13PM 67.1355 -8.3661 275° West  Level FlightAware Approximate
12:14PM 67.1460 -8.6779 275° West  Level FlightAware Approximate
12:15PM 67.1559 -8.9900 275° West  Level FlightAware Approximate
12:16PM 67.1652 -9.3024 275° West  Level FlightAware Approximate
12:17PM 67.1739 -9.6149 274° West  Level FlightAware Approximate
12:18PM 67.1820 -9.9277 274° West  Level FlightAware Approximate
12:19PM 67.1895 -10.2407 274° West  Level FlightAware Approximate
12:20PM 67.1963 -10.5539 273° West  Level FlightAware Approximate
12:21PM 67.2026 -10.8673 273° West  Level FlightAware Approximate
12:22PM 67.2082 -11.1808 273° West  Level FlightAware Approximate
12:23PM 67.2132 -11.4944 273° West  Level FlightAware Approximate
12:24PM 67.2177 -11.8082 272° West  Level FlightAware Approximate
12:25PM 67.2217 -12.1220 272° West  Level FlightAware Approximate
12:26PM 67.2251 -12.4360 272° West  Level FlightAware Approximate
12:27PM 67.2278 -12.7500 271° West  Level FlightAware Approximate
12:28PM 67.2300 -13.0641 271° West  Level FlightAware Approximate
12:29PM 67.2315 -13.3783 271° West  Level FlightAware Approximate
12:30PM 67.2324 -13.6925 271° West  Level FlightAware Approximate
12:31PM 67.2327 -14.0067 270° West  Level FlightAware Approximate
12:32PM 67.2324 -14.3209 270° West  Level FlightAware Approximate
12:33PM 67.2315 -14.6350 270° West  Level FlightAware Approximate
12:34PM 67.2299 -14.9492 269° West  Level FlightAware Approximate
12:35PM 67.2277 -15.2633 269° West  Level FlightAware Approximate
12:36PM 67.2250 -15.5773 269° West  Level FlightAware Approximate
12:37PM 67.2216 -15.8913 269° West  Level FlightAware Approximate
12:38PM 67.2176 -16.2052 268° West  Level FlightAware Approximate
12:39PM 67.2130 -16.5189 268° West  Level FlightAware Approximate
12:40PM 67.2077 -16.8325 268° West  Level FlightAware Approximate
12:41PM 67.2019 -17.1460 267° West  Level FlightAware Approximate
12:42PM 67.1954 -17.4593 267° West  Level FlightAware Approximate
12:43PM 67.1883 -17.7725 267° West  Level FlightAware Approximate
12:44PM 67.1807 -18.0854 267° West  Level FlightAware Approximate
12:45PM 67.1724 -18.3981 266° West  Level FlightAware Approximate
12:46PM 67.1635 -18.7107 266° West  Level FlightAware Approximate
12:47PM 67.1540 -19.0229 266° West  Level FlightAware Approximate
12:48PM 67.1439 -19.3350 265° West  Level FlightAware Approximate
12:49PM 67.1331 -19.6467 265° West  Level FlightAware Approximate
12:50PM 67.1218 -19.9582 265° West  Level FlightAware Approximate
12:51PM 67.1099 -20.2694 265° West  Level FlightAware Approximate
12:52PM 67.0973 -20.5802 264° West  Level FlightAware Approximate
12:53PM 67.0842 -20.8908 264° West  Level FlightAware Approximate
12:54PM 67.0704 -21.2010 264° West  Level FlightAware Approximate
12:55PM 67.0560 -21.5107 263° West  Level FlightAware Approximate
12:56PM 67.0409 -21.8201 263° West  Level FlightAware Approximate
12:57PM 67.0252 -22.1291 263° West  Level FlightAware Approximate
12:58PM 67.0089 -22.4377 262° West  Level FlightAware Approximate
12:59PM 66.9920 -22.7459 262° West  Level FlightAware Approximate
01:00PM 66.9745 -23.0536 262° West  Level FlightAware Approximate
01:01PM 66.9564 -23.3609 262° West  Level FlightAware Approximate
01:02PM 66.9377 -23.6678 261° West  Level FlightAware Approximate
01:03PM 66.9184 -23.9741 261° West  Level FlightAware Approximate
01:04PM 66.8986 -24.2800 261° West  Level FlightAware Approximate
01:05PM 66.8781 -24.5853 260° West  Level FlightAware Approximate
01:06PM 66.8571 -24.8902 260° West  Level FlightAware Approximate
01:07PM 66.8355 -25.1945 260° West  Level FlightAware Approximate
01:08PM 66.8133 -25.4983 260° West  Level FlightAware Approximate
01:09PM 66.7905 -25.8015 259° West  Level FlightAware Approximate
01:10PM 66.7671 -26.1041 259° West  Level FlightAware Approximate
01:11PM 66.7432 -26.4062 259° West  Level FlightAware Approximate
01:12PM 66.7186 -26.7076 259° West  Level FlightAware Approximate
01:13PM 66.6936 -27.0085 258° West  Level FlightAware Approximate
01:14PM 66.6679 -27.3087 258° West  Level FlightAware Approximate
01:15PM 66.6416 -27.6084 258° West  Level FlightAware Approximate
01:16PM 66.6148 -27.9073 257° West  Level FlightAware Approximate
01:17PM 66.5875 -28.2056 257° West  Level FlightAware Approximate
01:18PM 66.5594 -28.5033 257° West  Level FlightAware Approximate
01:19PM 66.5307 -28.8001 257° West  Level FlightAware Approximate
01:20PM 66.5015 -29.0963 256° West  Level FlightAware Approximate
01:21PM 66.4718 -29.3918 256° West  Level FlightAware Approximate
01:22PM 66.4415 -29.6866 256° West  Level FlightAware Approximate
01:23PM 66.4106 -29.9807 255° West  Level FlightAware Approximate
01:24PM 66.3792 -30.2740 255° West  Level FlightAware Approximate
01:25PM 66.3472 -30.5667 255° West  Level FlightAware Approximate
01:26PM 66.3147 -30.8585 255° West  Level FlightAware Approximate
01:27PM 66.2816 -31.1496 254° West  Level FlightAware Approximate
01:28PM 66.2480 -31.4399 254° West  Level FlightAware Approximate
01:29PM 66.2138 -31.7294 254° West  Level FlightAware Approximate
01:30PM 66.1792 -32.0182 254° West  Level FlightAware Approximate
01:31PM 66.1439 -32.3061 253° West  Level FlightAware Approximate
01:32PM 66.1082 -32.5933 253° West  Level FlightAware Approximate
01:33PM 66.0719 -32.8796 253° West  Level FlightAware Approximate
01:34PM 66.0350 -33.1651 253° West  Level FlightAware Approximate
01:35PM 65.9977 -33.4498 252° West  Level FlightAware Approximate
01:36PM 65.9598 -33.7336 252° West  Level FlightAware Approximate
01:37PM 65.9214 -34.0166 252° West  Level FlightAware Approximate
01:38PM 65.8825 -34.2988 251° West  Level FlightAware Approximate
01:39PM 65.8431 -34.5800 251° West  Level FlightAware Approximate
01:40PM 65.8032 -34.8605 251° West  Level FlightAware Approximate
01:41PM 65.7627 -35.1400 251° West  Level FlightAware Approximate
01:42PM 65.7217 -35.4187 250° West  Level FlightAware Approximate
01:43PM 65.6803 -35.6964 250° West  Level FlightAware Approximate
01:44PM 65.6383 -35.9733 250° West  Level FlightAware Approximate
01:45PM 65.5958 -36.2493 250° West  Level FlightAware Approximate
01:46PM 65.5528 -36.5243 249° West  Level FlightAware Approximate
01:47PM 65.5094 -36.7985 249° West  Level FlightAware Approximate
01:48PM 65.4654 -37.0718 249° West  Level FlightAware Approximate
01:49PM 65.4210 -37.3441 249° West  Level FlightAware Approximate
01:50PM 65.3760 -37.6155 248° West  Level FlightAware Approximate
01:51PM 65.3306 -37.8859 248° West  Level FlightAware Approximate
01:52PM 65.2847 -38.1554 248° West  Level FlightAware Approximate
01:53PM 65.2383 -38.4240 248° West  Level FlightAware Approximate
01:54PM 65.1914 -38.6917 247° West  Level FlightAware Approximate
01:55PM 65.1441 -38.9584 247° West  Level FlightAware Approximate
01:56PM 65.0963 -39.2241 247° West  Level FlightAware Approximate
01:57PM 65.0480 -39.4888 247° West  Level FlightAware Approximate
01:58PM 64.9992 -39.7527 246° West  Level FlightAware Approximate
01:59PM 64.9500 -40.0155 246° West  Level FlightAware Approximate
02:00PM 64.9003 -40.2774 246° West  Level FlightAware Approximate
02:01PM 64.8502 -40.5383 246° West  Level FlightAware Approximate
02:02PM 64.7996 -40.7982 246° West  Level FlightAware Approximate
02:03PM 64.7486 -41.0572 245° Southwest  Level FlightAware Approximate
02:04PM 64.6973 -41.3154 245° Southwest  Level FlightAware Approximate
02:05PM 64.6455 -41.5726 245° Southwest  Level FlightAware Approximate
02:06PM 64.5933 -41.8288 245° Southwest  Level FlightAware Approximate
02:07PM 64.5407 -42.0840 244° Southwest  Level FlightAware Approximate
02:08PM 64.4876 -42.3382 244° Southwest  Level FlightAware Approximate
02:09PM 64.4341 -42.5915 244° Southwest  Level FlightAware Approximate
02:10PM 64.3801 -42.8437 244° Southwest  Level FlightAware Approximate
02:11PM 64.3264 -43.0957 244° Southwest  Level FlightAware Approximate
02:12PM 64.2730 -43.3476 244° Southwest  Level FlightAware Approximate
02:13PM 64.2191 -43.5985 244° Southwest  Level FlightAware Approximate
02:14PM 64.1649 -43.8485 244° Southwest  Level FlightAware Approximate
02:15PM 64.1102 -44.0974 243° Southwest  Level FlightAware Approximate
02:16PM 64.0551 -44.3454 243° Southwest  Level FlightAware Approximate
02:17PM 63.9996 -44.5924 243° Southwest  Level FlightAware Approximate
02:18PM 63.9436 -44.8384 243° Southwest  Level FlightAware Approximate
02:19PM 63.8860 -45.0820 242° Southwest  Level FlightAware Approximate
02:20PM 63.8277 -45.3241 241° Southwest  Level FlightAware Approximate
02:21PM 63.7690 -45.5653 241° Southwest  Level FlightAware Approximate
02:22PM 63.7099 -45.8055 241° Southwest  Level FlightAware Approximate
02:23PM 63.6504 -46.0446 241° Southwest  Level FlightAware Approximate
02:24PM 63.5905 -46.2827 241° Southwest  Level FlightAware Approximate
02:25PM 63.5302 -46.5199 240° Southwest  Level FlightAware Approximate
02:26PM 63.4695 -46.7560 240° Southwest  Level FlightAware Approximate
02:27PM 63.4084 -46.9912 240° Southwest  Level FlightAware Approximate
02:28PM 63.3470 -47.2253 240° Southwest  Level FlightAware Approximate
02:29PM 63.2851 -47.4585 240° Southwest  Level FlightAware Approximate
02:30PM 63.2229 -47.6906 239° Southwest  Level FlightAware Approximate
02:31PM 63.1603 -47.9217 239° Southwest  Level FlightAware Approximate
02:32PM 63.0973 -48.1519 239° Southwest  Level FlightAware Approximate
02:33PM 63.0340 -48.3810 239° Southwest  Level FlightAware Approximate
02:34PM 62.9703 -48.6091 239° Southwest  Level FlightAware Approximate
02:35PM 62.9062 -48.8363 238° Southwest  Level FlightAware Approximate
02:36PM 62.8418 -49.0624 238° Southwest  Level FlightAware Approximate
02:37PM 62.7770 -49.2876 238° Southwest  Level FlightAware Approximate
02:38PM 62.7118 -49.5118 238° Southwest  Level FlightAware Approximate
02:39PM 62.6463 -49.7350 237° Southwest  Level FlightAware Approximate
02:40PM 62.5804 -49.9571 237° Southwest  Level FlightAware Approximate
02:41PM 62.5142 -50.1783 237° Southwest  Level FlightAware Approximate
02:42PM 62.4476 -50.3986 237° Southwest  Level FlightAware Approximate
02:43PM 62.3807 -50.6178 237° Southwest  Level FlightAware Approximate
02:44PM 62.3135 -50.8361 237° Southwest  Level FlightAware Approximate
02:45PM 62.2459 -51.0534 236° Southwest  Level FlightAware Approximate
02:46PM 62.1780 -51.2697 236° Southwest  Level FlightAware Approximate
02:47PM 62.1097 -51.4850 236° Southwest  Level FlightAware Approximate
02:48PM 62.0411 -51.6994 236° Southwest  Level FlightAware Approximate
02:49PM 61.9721 -51.9128 236° Southwest  Level FlightAware Approximate
02:50PM 61.9029 -52.1252 235° Southwest  Level FlightAware Approximate
02:51PM 61.8333 -52.3367 235° Southwest  Level FlightAware Approximate
02:52PM 61.7634 -52.5472 235° Southwest  Level FlightAware Approximate
02:53PM 61.6932 -52.7568 235° Southwest  Level FlightAware Approximate
02:54PM 61.6226 -52.9654 235° Southwest  Level FlightAware Approximate
02:55PM 61.5517 -53.1731 234° Southwest  Level FlightAware Approximate
02:56PM 61.4806 -53.3798 234° Southwest  Level FlightAware Approximate
02:57PM 61.4091 -53.5855 234° Southwest  Level FlightAware Approximate
02:58PM 61.3373 -53.7904 234° Southwest  Level FlightAware Approximate
02:59PM 61.2652 -53.9942 234° Southwest  Level FlightAware Approximate
02:59PM 63.5000 -55.5667 219° Southwest 470 541 34,000  Level Gander Center
03:00PM 61.1927 -54.1972 234° Southwest  Level FlightAware Approximate
03:00PM 63.4333 -55.8000 238° Southwest 470 541 34,000  Level Gander Center
03:01PM 61.0954 -54.3647 220° Southwest  Level Estimated
03:01PM 63.3667 -56.0333 238° Southwest 480 552 34,000  Level Gander Center
03:02PM 60.9979 -54.5311 220° Southwest  Level Estimated
03:02PM 63.2833 -56.2667 232° Southwest 480 552 34,000  Level Gander Center
03:03PM 60.9001 -54.6967 219° Southwest  Level Estimated
03:03PM 63.2167 -56.5000 238° Southwest 470 541 34,000  Level Gander Center
03:04PM 60.8021 -54.8612 219° Southwest  Level Estimated
03:04PM 63.1333 -56.7333 232° Southwest 470 541 34,000  Level Gander Center
03:05PM 63.0500 -56.9667 232° Southwest 470 541 34,000  Level Gander Center
03:06PM 62.9833 -57.2000 238° Southwest 470 541 34,000  Level Gander Center
03:07PM 62.9000 -57.4333 232° Southwest 460 529 34,000  Level Gander Center
03:08PM 62.8500 -57.6500 243° Southwest 460 529 34,000  Level Gander Center
03:13PM 62.4500 -58.7667 231° Southwest 480 552 34,000  Level Gander Center
03:14PM 62.3667 -59.0333 236° Southwest 480 552 34,000  Level Gander Center
03:15PM 62.3000 -59.2500 237° Southwest 480 552 34,000  Level Gander Center
03:27PM 61.1500 -61.6000 220° Southwest 490 564 34,000  Level Gander Center
03:28PM 61.1824 -61.4744 221° Southwest  Level FlightAware Approximate
03:28PM 61.0500 -61.8000 224° Southwest 480 552 34,000  Level Gander Center
03:29PM 61.0909 -61.6370 221° Southwest  Level FlightAware Approximate
03:29PM 60.9667 -62.0000 229° Southwest 480 552 34,000  Level Gander Center
03:45PM 59.4833 -65.0500 228° Southwest 470 541 34,000  Level Montreal Center
03:46PM 59.6853 -65.0831 229° Southwest  Level FlightAware Approximate
03:46PM 59.4000 -65.2000 223° Southwest 470 541 34,000  Level Montreal Center
03:47PM 59.6053 -65.2615 229° Southwest  Level FlightAware Approximate
03:47PM 59.3000 -65.3667 220° Southwest 470 541 34,000  Level Montreal Center
03:48PM 59.5251 -65.4391 228° Southwest  Level FlightAware Approximate
03:48PM 59.1833 -65.5333 216° Southwest 470 541 34,000  Level Montreal Center
03:49PM 59.4447 -65.6159 228° Southwest  Level FlightAware Approximate
03:49PM 59.0833 -65.7000 221° Southwest 470 541 34,000  Level Montreal Center
03:50PM 59.3640 -65.7918 228° Southwest  Level FlightAware Approximate
03:50PM 58.9833 -65.8667 221° Southwest 470 541 34,000  Level Montreal Center
03:51PM 58.8833 -66.0167 218° Southwest 470 541 34,000  Level Montreal Center
03:52PM 58.7833 -66.1833 221° Southwest 480 552 34,000  Level Montreal Center
03:53PM 58.6667 -66.3333 214° Southwest 470 541 34,000  Level Montreal Center
03:54PM 58.5667 -66.4667 215° Southwest 470 541 34,000  Level Montreal Center
03:55PM 58.4667 -66.6167 218° Southwest 470 541 34,000  Level Montreal Center
03:56PM 58.3667 -66.7667 218° Southwest 460 529 34,000  Level Montreal Center
03:57PM 58.2667 -66.9333 221° Southwest 470 541 34,000  Level Montreal Center
03:58PM 58.1667 -67.0833 218° Southwest 470 541 34,000  Level Montreal Center
03:59PM 58.0500 -67.2333 214° Southwest 470 541 34,000  Level Montreal Center
04:00PM 57.9500 -67.3833 219° Southwest 470 541 34,000  Level Montreal Center
04:01PM 57.8500 -67.5333 219° Southwest 460 529 34,000  Level Montreal Center
04:02PM 57.7333 -67.6667 211° Southwest 460 529 34,000  Level Montreal Center
04:03PM 57.6333 -67.8167 219° Southwest 470 541 34,000  Level Montreal Center
04:04PM 57.5333 -67.9667 219° Southwest 460 529 34,000  Level Montreal Center
04:05PM 57.4167 -68.1000 212° Southwest 470 541 34,000  Level Montreal Center
04:06PM 57.3167 -68.2500 219° Southwest 460 529 34,000  Level Montreal Center
04:07PM 57.2167 -68.4000 219° Southwest 460 529 34,000  Level Montreal Center
04:08PM 57.1167 -68.5500 219° Southwest 460 529 34,000  Level Montreal Center
04:09PM 57.0167 -68.6667 212° Southwest 460 529 34,000  Level Montreal Center
04:10PM 56.9000 -68.8000 212° Southwest 460 529 34,000  Level Montreal Center
04:11PM 56.8000 -68.9500 219° Southwest 460 529 34,000  Level Montreal Center
04:12PM 56.7000 -69.0833 216° Southwest 460 529 34,000  Level Montreal Center
04:13PM 56.6000 -69.2333 220° Southwest 460 529 34,000  Level Montreal Center
04:14PM 56.5000 -69.3333 209° Southwest 460 529 34,000  Level Montreal Center
04:18PM 56.0667 -69.9000 226° Southwest 460 529 34,000  Level Montreal Center
04:19PM 55.9833 -70.0333 222° Southwest 460 529 34,000  Level Montreal Center
04:20PM 55.8667 -70.1333 206° Southwest 460 529 34,000  Level Montreal Center
04:21PM 55.7667 -70.2667 217° Southwest 450 518 34,000  Level Montreal Center
04:22PM 55.6500 -70.4167 216° Southwest 450 518 34,000  Level Montreal Center
04:23PM 55.7635 -70.6877 226° Southwest  Level FlightAware Approximate
04:23PM 55.5667 -70.5333 218° Southwest 450 518 34,000  Level Montreal Center
04:24PM 55.4500 -70.6500 210° Southwest 450 518 34,000  Level Montreal Center
04:25PM 55.3500 -70.7833 217° Southwest 450 518 34,000  Level Montreal Center
04:26PM 55.2333 -70.9167 213° Southwest 450 518 34,000  Level Montreal Center
04:27PM 55.1333 -71.0167 210° Southwest 450 518 34,000  Level Montreal Center
04:28PM 55.0167 -71.1500 213° Southwest 460 529 34,000  Level Montreal Center
04:29PM 54.9167 -71.2667 214° Southwest 460 529 34,000  Level Montreal Center
04:30PM 54.8000 -71.4000 213° Southwest 460 529 34,000  Level Montreal Center
04:31PM 54.6833 -71.5333 213° Southwest 460 529 34,000  Level Montreal Center
04:32PM 54.6000 -71.6333 215° Southwest 460 529 34,000  Level Montreal Center
04:33PM 54.4833 -71.7667 214° Southwest 460 529 34,000  Level Montreal Center
04:34PM 54.3833 -71.8833 214° Southwest 450 518 34,000  Level Montreal Center
04:35PM 54.2667 -72.0167 214° Southwest 460 529 34,000  Level Montreal Center
04:36PM 54.1667 -72.1000 206° Southwest 460 529 34,000  Level Montreal Center
04:37PM 54.0500 -72.2333 214° Southwest 460 529 34,000  Level Montreal Center
04:38PM 53.9667 -72.3500 219° Southwest 460 529 34,000  Level Montreal Center
04:39PM 53.8500 -72.4833 214° Southwest 460 529 34,000  Level Montreal Center
04:40PM 53.7333 -72.6000 211° Southwest 450 518 34,000  Level Montreal Center
04:41PM 53.6333 -72.7333 218° Southwest 450 518 34,000  Level Montreal Center
04:42PM 53.5167 -72.8167 203° Southwest 450 518 34,000  Level Montreal Center
04:43PM 53.4167 -72.9333 215° Southwest 450 518 34,000  Level Montreal Center
04:44PM 53.3000 -73.0667 214° Southwest 450 518 34,000  Level Montreal Center
04:45PM 53.2000 -73.1500 207° Southwest 440 506 34,000  Level Montreal Center
04:46PM 53.1000 -73.2667 215° Southwest 440 506 34,000  Level Montreal Center
04:47PM 53.0000 -73.3833 215° Southwest 440 506 34,000  Level Montreal Center
04:48PM 52.9000 -73.4833 211° Southwest 440 506 34,000  Level Montreal Center
04:49PM 52.8000 -73.6000 215° Southwest 440 506 34,000  Level Montreal Center
04:50PM 52.6833 -73.7167 211° Southwest 450 518 34,000  Level Montreal Center
04:51PM 52.5833 -73.8333 215° Southwest 450 518 34,000  Level Montreal Center
04:52PM 52.4667 -73.9500 211° Southwest 450 518 34,000  Level Montreal Center
04:53PM 52.3667 -74.0333 207° Southwest 450 518 34,000  Level Montreal Center
04:54PM 52.2500 -74.1500 211° Southwest 450 518 34,000  Level Montreal Center
05:03PM 51.3000 -75.0833 211° Southwest 440 506 34,000  Level Montreal Center
05:04PM 51.2581 -75.1686 211° Southwest  Level FlightAware Approximate
05:04PM 51.1833 -75.1833 208° Southwest 440 506 34,000  Level Montreal Center
05:05PM 51.1553 -75.2680 211° Southwest  Level FlightAware Approximate
05:05PM 51.0833 -75.2667 208° Southwest 440 506 34,000  Level Montreal Center
05:06PM 51.0525 -75.3670 211° Southwest  Level FlightAware Approximate
05:06PM 50.9667 -75.3833 212° Southwest 440 506 34,000  Level Montreal Center
05:07PM 50.9497 -75.4658 211° Southwest  Level FlightAware Approximate
05:07PM 50.8667 -75.4833 212° Southwest 440 506 34,000  Level Montreal Center
05:08PM 50.8471 -75.5644 211° Southwest  Level FlightAware Approximate
05:08PM 50.7500 -75.5667 204° Southwest 440 506 34,000  Level Montreal Center
05:09PM 50.6500 -75.6667 212° Southwest 440 506 34,000  Level Montreal Center
05:10PM 50.5333 -75.7833 212° Southwest 440 506 34,000  Level Montreal Center
05:11PM 50.4333 -75.8667 208° Southwest 440 506 34,000  Level Montreal Center
05:12PM 50.3333 -75.9667 213° Southwest 440 506 34,000  Level Montreal Center
05:13PM 50.2333 -76.0667 213° Southwest 440 506 34,000  Level Montreal Center
05:14PM 50.1167 -76.1833 213° Southwest 440 506 34,000  Level Montreal Center
05:15PM 50.0000 -76.2500 200° South 440 506 34,000  Level Montreal Center
05:16PM 49.9000 -76.3500 213° Southwest 440 506 34,000  Level Montreal Center
05:17PM 49.7833 -76.4333 205° Southwest 440 506 34,000  Level Montreal Center
05:18PM 49.6833 -76.5333 213° Southwest 440 506 34,000  Level Montreal Center
05:19PM 49.5833 -76.6333 213° Southwest 430 495 34,000  Level Montreal Center
05:20PM 49.4667 -76.7167 205° Southwest 450 518 34,000  Level Montreal Center
05:21PM 49.3667 -76.8167 213° Southwest 440 506 34,000  Level Montreal Center
05:22PM 49.2667 -76.9167 213° Southwest 430 495 34,000  Level Montreal Center
05:23PM 49.1500 -77.0000 205° Southwest 440 506 34,000  Level Montreal Center
05:24PM 49.0500 -77.1000 213° Southwest 430 495 34,000  Level Montreal Center
05:25PM 48.9500 -77.1667 204° Southwest 440 506 34,000  Level Montreal Center
05:26PM 48.8167 -77.2667 206° Southwest 440 506 34,000  Level Montreal Center
05:27PM 48.7167 -77.3667 213° Southwest 440 506 34,000  Level Montreal Center
05:28PM 48.6167 -77.4333 204° Southwest 440 506 34,000  Level Montreal Center
05:29PM 48.5000 -77.5333 210° Southwest 440 506 34,000  Level Montreal Center
05:30PM 48.4000 -77.6333 214° Southwest 440 506 34,000  Level Montreal Center
05:31PM 48.3000 -77.7333 214° Southwest 440 506 34,000  Level Montreal Center
05:32PM 48.1833 -77.8000 201° Southwest 440 506 34,000  Level Montreal Center
05:33PM 48.0667 -77.8833 206° Southwest 450 518 34,000  Level Montreal Center
05:34PM 47.9500 -77.9500 201° Southwest 450 518 34,000  Level Montreal Center
05:38PM 47.4833 -78.2333 201° Southwest 440 506 34,000  Level Montreal Center
05:39PM 47.3833 -78.2667 193° South 440 506 34,000  Level Montreal Center
05:40PM 47.2667 -78.3500 206° Southwest 440 506 34,000  Level Montreal Center
05:41PM 47.1500 -78.4167 201° Southwest 440 506 34,000  Level Montreal Center
05:42PM 47.0333 -78.4833 201° Southwest 430 495 34,000  Level Montreal Center
05:43PM 46.9768 -78.4963 201° Southwest  Level FlightAware Approximate
05:43PM 46.9167 -78.5500 201° Southwest 430 495 34,000  Level Montreal Center
05:44PM 46.8167 -78.6167 205° Southwest 430 495 34,000  Level Montreal Center
05:54PM 45.6833 -79.2333 200° South 430 495 34,000  Level Montreal Center
05:55PM 45.6137 -79.2476 200° South  Level FlightAware Approximate
05:55PM 45.5667 -79.2667 191° South 430 495 34,000  Level Montreal Center
05:56PM 45.5006 -79.3054 200° South  Level FlightAware Approximate
05:57PM 45.3874 -79.3631 200° South  Level FlightAware Approximate
05:58PM 45.2742 -79.4204 200° South  Level FlightAware Approximate
05:59PM 45.1610 -79.4776 200° South  Level FlightAware Approximate
06:00PM 44.9875 -79.5841 191° South 425 489 34,000  Level FlightAware ADS-B (CYKF)
06:02PM 44.9043 -79.6274 200° South 425 489 34,000  Level FlightAware ADS-B
06:05PM 44.4859 -79.8792 203° Southwest 424 488 34,000  Level FlightAware ADS-B (CYKF)
06:05PM 44.4859 -79.8792 203° Southwest 416 479 34,000  Level FlightAware ADS-B (CYKF)
06:06PM 44.4859 -79.8792 203° Southwest 413 475 34,000  Level FlightAware ADS-B (CYKF)
06:07PM 44.2831 -80.0623 213° Southwest 413 475 34,000  Level FlightAware ADS-B (CYKF)
06:08PM 44.1541 -80.1773 213° Southwest 399 459 34,000  Level FlightAware ADS-B (CYKF)
06:09PM 44.0606 -80.2606 213° Southwest 402 463 34,000  Level FlightAware ADS-B (CYKF)
06:10PM 43.9989 -80.3152 212° Southwest 401 461 34,000  Level FlightAware ADS-B (CYKF)
06:10PM 43.9430 -80.3646 212° Southwest 400 460 34,000  Level FlightAware ADS-B (CYKF)
06:11PM 43.8722 -80.4269 212° Southwest 403 464 34,000  Level FlightAware ADS-B (CYKF)
06:12PM 43.8151 -80.4773 212° Southwest 404 465 34,000  Level FlightAware ADS-B (CYKF)
06:12PM 43.7590 -80.5264 212° Southwest 403 464 34,000  Level FlightAware ADS-B (CYKF)
06:13PM 43.7064 -80.5724 212° Southwest 402 463 34,000  Level FlightAware ADS-B (MDST / STI)
06:13PM 43.6738 -80.6007 212° Southwest 401 461 34,000  Level FlightAware ADS-B (CYKF)
06:14PM 43.6011 -80.6641 212° Southwest 400 460 34,000  Level FlightAware ADS-B (CZBA)
06:15PM 43.6245 -80.6437 32° Northeast 400 460 34,000  Level FlightAware ADS-B (MDST / STI)
06:15PM 43.4941 -80.7571 212° Southwest 404 465 34,000  Level FlightAware ADS-B (CYKF)
06:16PM 43.3975 -80.8409 212° Southwest 405 466 34,000  Level FlightAware ADS-B (CYKF)
06:17PM 43.3456 -80.8856 212° Southwest 406 467 34,000  Level FlightAware ADS-B (CYKF)
06:18PM 43.2955 -80.9286 212° Southwest 406 467 34,000  Level FlightAware ADS-B (CYKF)
06:18PM 43.2178 -80.9952 212° Southwest 407 468 34,000  Level FlightAware ADS-B (CYKF)
06:19PM 43.1501 -81.0534 212° Southwest 404 465 34,000  Level FlightAware ADS-B (CYKF)
06:19PM 43.0912 -81.1037 212° Southwest 405 466 34,000  Level FlightAware ADS-B (CYKF)
06:20PM 43.0185 -81.1607 210° Southwest 409 471 34,000  Level FlightAware ADS-B (CYKF)
06:21PM 42.9789 -81.1843 204° Southwest 412 474 34,000  Level FlightAware ADS-B (CYKF)
06:22PM 42.8908 -81.2395 205° Southwest 411 473 34,000  Level FlightAware ADS-B (CYKF)
06:22PM 42.8158 -81.2863 205° Southwest 412 474 34,000  Level FlightAware ADS-B (CYKF)
06:23PM 42.7696 -81.3148 204° Southwest 411 473 34,000  Level FlightAware ADS-B (CYKF)
06:24PM 42.6738 -81.3736 204° Southwest 410 472 34,000  Level FlightAware ADS-B (CYKF)
06:25PM 42.5201 -81.4674 204° Southwest 408 470 34,000  Level FlightAware ADS-B (CYKF)
06:26PM 42.4167 -81.5000 204° Southwest 400 460 34,000  Level Toronto Center
06:27PM 42.3242 -81.5858 214° Southwest 405 466 34,000  Level Cleveland Center
06:28PM 42.2217 -81.6489 204° Southwest 403 464 34,000  Level Cleveland Center
06:29PM 42.1197 -81.7108 204° Southwest 402 463 34,000  Level Cleveland Center
06:30PM 42.0164 -81.7711 203° Southwest 402 463 34,000  Level Cleveland Center
06:31PM 41.9131 -81.8339 204° Southwest 404 465 34,000  Level Cleveland Center
06:32PM 41.8114 -81.8939 204° Southwest 397 457 34,000  Level Cleveland Center
06:33PM 41.7100 -81.9542 204° Southwest 398 458 34,000  Level Cleveland Center
06:34PM 41.5911 -82.0250 204° Southwest 398 458 34,000  Level Cleveland Center
06:35PM 41.4892 -82.0833 203° Southwest 398 458 34,000  Level Cleveland Center
06:36PM 41.3869 -82.1433 204° Southwest 399 459 34,000  Level Cleveland Center
06:37PM 41.2789 -82.1881 197° South 405 466 34,000  Level Cleveland Center
06:38PM 41.1683 -82.2292 196° South 409 471 34,000  Level Cleveland Center
06:39PM 41.0389 -82.2747 195° South 410 472 34,000  Level Cleveland Center
06:40PM 40.9300 -82.3128 195° South 404 465 34,000  Level Cleveland Center
06:41PM 40.8214 -82.3531 196° South 403 464 34,000  Level Cleveland Center
06:42PM 40.7122 -82.3914 195° South 403 464 34,000  Level Cleveland Center
06:43PM 40.6044 -82.4286 195° South 402 463 34,000  Level Cleveland Center
06:44PM 40.4936 -82.4686 195° South 396 456 34,000  Level Cleveland Center
06:49PM 40.0254 -82.5965 195° South 410 472 34,000  Level FlightAware ADS-B (KPMH)
06:50PM 39.9311 -82.6039 183° South 406 467 34,000  Level Cleveland Center
06:58PM 39.0122 -82.6647 184° South 395 455 34,000 60 Level Indianapolis Center
06:59PM 38.9017 -82.6607 183° South  Level FlightAware Approximate
07:00PM 38.7819 -82.6584 183° South  Level Estimated
07:01PM 38.6623 -82.6680 184° South  Level FlightAware Approximate
07:02PM 38.5427 -82.6775 184° South  Level FlightAware Approximate
07:03PM 38.4231 -82.6870 184° South  Level FlightAware Approximate
07:04PM 38.3822 -82.7061 184° South 384 442 34,900  Level FlightAware ADS-B (KPMH)
07:05PM 38.2942 -82.7119 183° South 381 438 35,000 60 Climbing FlightAware ADS-B (KPMH)
07:05PM 38.2250 -82.7153 183° South 380 437 35,000 120 Level Indianapolis Center
07:10PM 37.6811 -82.7631 207° Southwest 374 430 36,000 60 Climbing Indianapolis Center
07:14PM 37.3467 -82.9697 265° West 333 383 36,000  Level Indianapolis Center
07:15PM 37.1838 -83.0598 207° Southwest  Level FlightAware Approximate
07:16PM 37.0778 -83.1287 207° Southwest  Level FlightAware Approximate
07:16PM 37.2642 -83.0247 208° Southwest 335 386 36,000  Level Indianapolis Center
07:17PM 37.1808 -83.0781 207° Southwest 336 387 36,000  Level Indianapolis Center
07:18PM 37.0981 -83.1317 207° Southwest 336 387 36,000  Level Indianapolis Center
07:19PM 36.7269 -82.8051 207° Southwest  Level Estimated
07:19PM 37.0008 -83.1956 208° Southwest 340 391 36,000  Level Indianapolis Center
07:20PM 36.7160 -82.9534 265° West  Level FlightAware Approximate
07:20PM 36.9181 -83.2486 207° Southwest 337 388 36,000  Level Indianapolis Center
07:21PM 36.8350 -83.3033 208° Southwest 339 390 36,000  Level Indianapolis Center
07:22PM 36.7508 -83.3569 207° Southwest 340 391 36,000  Level Indianapolis Center
07:23PM 36.6661 -83.4111 207° Southwest 342 394 36,000  Level Indianapolis Center
07:24PM 36.5817 -83.4656 207° Southwest 342 394 36,000  Level Indianapolis Center
07:25PM 36.4911 -83.5228 207° Southwest 341 392 36,000  Level Indianapolis Center
07:26PM 36.4058 -83.5783 208° Southwest 344 396 36,000  Level Indianapolis Center
07:27PM 36.3194 -83.6336 207° Southwest 347 399 36,000  Level Indianapolis Center
07:28PM 36.2322 -83.6881 207° Southwest 350 403 36,000  Level Indianapolis Center
07:29PM 36.1453 -83.7422 207° Southwest 348 400 36,000  Level Indianapolis Center
07:30PM 36.0725 -83.7922 209° Southwest 344 396 36,000  Level Atlanta Center
07:31PM 35.9850 -83.8464 207° Southwest 344 396 36,000 -60 Level Atlanta Center
07:32PM 35.8975 -83.8953 204° Southwest 344 396 35,900 -120 Descending Atlanta Center
07:34PM 35.6718 -83.9479 191° South  Level FlightAware Approximate
07:40PM 35.0264 -84.1069 191° South 365 420 35,000  Level FlightAware ADS-B (KDZJ)
07:41PM 34.9543 -84.1242 191° South 374 430 35,000  Level FlightAware ADS-B (KDZJ)
07:47PM 34.3722 -84.2603 191° South 376 433 35,000  Level Atlanta Center
07:48PM 34.1797 -84.3041 189° South  Level FlightAware Approximate
07:48PM 34.2678 -84.2850 191° South 376 433 35,000  Level Atlanta Center
07:49PM 34.0621 -84.3276 189° South  Level FlightAware Approximate
07:49PM 34.1656 -84.3100 191° South 376 433 35,000  Level Atlanta Center
07:50PM 33.9450 -84.3546 191° South  Level FlightAware Approximate
07:50PM 34.0653 -84.3347 192° South 392 451 35,000  Level Atlanta Center
07:51PM 33.8281 -84.3827 191° South  Level FlightAware Approximate
07:51PM 33.9628 -84.3594 191° South 392 451 35,000  Level Atlanta Center
07:52PM 33.7112 -84.4107 191° South  Level FlightAware Approximate
07:52PM 33.8586 -84.3842 191° South 392 451 35,000  Level Atlanta Center
07:53PM 33.7478 -84.4086 190° South 397 457 35,000  Level Atlanta Center
07:54PM 33.6414 -84.4331 191° South 391 450 35,000  Level Atlanta Center
07:55PM 33.5181 -84.4375 182° South 402 463 35,000  Level Atlanta Center
07:56PM 33.4011 -84.4344 179° South 408 470 35,000  Level Atlanta Center
07:57PM 33.2864 -84.4314 179° South 414 476 35,000  Level Atlanta Center
07:58PM 33.1694 -84.4283 179° South 419 482 35,000  Level Atlanta Center
07:59PM 33.0528 -84.4256 179° South 419 482 35,000  Level Atlanta Center
08:00PM 32.9378 -84.4250 180° South 419 482 35,000  Level Atlanta Center
08:01PM 32.8167 -84.4244 180° South 419 482 35,000  Level Atlanta Center
08:02PM 32.7125 -84.4189 177° South 419 482 35,000  Level Atlanta Center
08:03PM 32.5206 -84.4128 178° South 421 484 35,000  Level Jacksonville Center
08:04PM 32.4017 -84.4108 179° South 427 491 35,000  Level Jacksonville Center
08:05PM 32.2806 -84.4086 179° South 433 498 35,000  Level Jacksonville Center
08:06PM 32.1594 -84.4067 179° South 433 498 35,000  Level Jacksonville Center
08:07PM 32.0406 -84.4047 179° South 433 498 35,000  Level Jacksonville Center
08:08PM 31.9175 -84.4028 179° South 438 504 35,000  Level Jacksonville Center
08:09PM 31.7983 -84.4008 179° South 438 504 35,000  Level Jacksonville Center
08:10PM 31.6775 -84.3989 179° South 438 504 35,000  Level Jacksonville Center
08:16PM 30.9532 -84.3817 179° South 446 513 35,000  Level FlightAware ADS-B (KTLH)
08:17PM 30.8769 -84.3802 179° South 447 514 35,000  Level FlightAware ADS-B (KTLH)
08:17PM 30.7964 -84.3786 179° South 449 517 35,000  Level FlightAware ADS-B (KTLH)
08:18PM 30.7096 -84.3762 179° South 456 525 35,000  Level FlightAware ADS-B (KTLH)
08:19PM 30.6226 -84.3638 173° South 470 541 35,000  Level FlightAware ADS-B (KTLH)
08:19PM 30.5453 -84.3423 166° South 486 559 35,000  Level FlightAware ADS-B (KTLH)
08:20PM 30.4488 -84.3000 159° South 494 568 35,000  Level FlightAware ADS-B (KTLH)
08:21PM 30.3056 -84.2111 159° South 490 564 35,000  Level Jacksonville Center
08:22PM 30.1811 -84.1300 151° Southeast 501 577 35,000  Level Jacksonville Center
08:23PM 30.0567 -84.0492 151° Southeast 508 585 35,000  Level Jacksonville Center
08:24PM 29.9364 -83.9689 150° Southeast 508 585 35,000  Level Jacksonville Center
08:25PM 29.8139 -83.8883 150° Southeast 508 585 35,000  Level Jacksonville Center
08:26PM 29.6892 -83.8083 151° Southeast 508 585 35,000  Level Jacksonville Center
08:27PM 29.5664 -83.7258 150° Southeast 508 585 35,000  Level Jacksonville Center
08:28PM 29.4458 -83.6439 149° Southeast 508 585 35,000  Level Jacksonville Center
08:29PM 29.3211 -83.5619 150° Southeast 513 590 35,000  Level Jacksonville Center
08:35PM 28.6409 -83.1157 150° Southeast 506 582 35,000  Level FlightAware ADS-B (KMCO)
08:35PM 28.5914 -83.0836 150° Southeast 505 581 35,000  Level FlightAware ADS-B (KMCO)
08:37PM 28.4125 -82.9678 150° Southeast 508 585 35,000  Level FlightAware ADS-B (KMCO)
08:38PM 28.2748 -82.8790 150° Southeast 510 587 35,000  Level FlightAware ADS-B (KMCO)
08:38PM 28.2028 -82.8327 150° Southeast 511 588 35,000  Level FlightAware ADS-B (KMCO)
08:39PM 28.1108 -82.7735 150° Southeast 510 587 35,000  Level FlightAware ADS-B (KMCO)
08:40PM 27.9965 -82.7003 150° Southeast 509 586 35,000  Level FlightAware ADS-B (KMCO)
08:41PM 27.9000 -82.6385 151° Southeast 511 588 35,000  Level FlightAware ADS-B (KMCO)
08:41PM 27.8192 -82.5870 151° Southeast 511 588 35,000  Level FlightAware ADS-B (KMCO)
08:42PM 27.7343 -82.5328 151° Southeast 508 585 35,000  Level FlightAware ADS-B (KMCO)
08:43PM 27.6614 -82.4864 151° Southeast 506 582 35,000  Level FlightAware ADS-B (KMCO)
08:43PM 27.5937 -82.4434 151° Southeast 503 579 35,000  Level FlightAware ADS-B (KMCO)
08:44PM 27.4868 -82.3756 151° Southeast 502 578 35,000  Level FlightAware ADS-B (KMCO)
08:45PM 27.3777 -82.3067 151° Southeast 503 579 35,000  Level FlightAware ADS-B (KMCO)
08:46PM 27.3153 -82.2673 151° Southeast 505 581 35,000  Level FlightAware ADS-B (KMCO)
08:46PM 27.2753 -82.2425 183° South 507 583 35,000  Level Miami Center
08:47PM 27.1615 -82.1703 151° Southeast 505 581 35,000  Level FlightAware ADS-B (KMCO)
08:50PM 26.8372 -82.1895 183° South  Level Estimated
08:51PM 26.7185 -82.1964 183° South  Level Estimated
08:52PM 26.5293 -82.2025 183° South 447 514 35,000  Level FlightAware ADS-B (KMCO)
08:52PM 26.4459 -82.2131 187° South 451 519 35,000  Level FlightAware ADS-B (KMCO)
08:53PM 26.3641 -82.2236 187° South 450 518 35,000  Level FlightAware ADS-B (KMCO)
08:54PM 26.2807 -82.2342 187° South 449 517 35,000  Level FlightAware ADS-B (KMCO)
08:54PM 26.1976 -82.2447 186° South 451 519 35,000  Level FlightAware ADS-B (KMCO)
08:55PM 26.1232 -82.2542 187° South 452 520 35,000  Level FlightAware ADS-B (KMCO)
08:56PM 26.0311 -82.2658 186° South 452 520 35,000  Level FlightAware ADS-B (KMCO)
08:56PM 25.9631 -82.2744 186° South 455 524 35,000  Level FlightAware ADS-B (KMCO)
08:57PM 25.8794 -82.2850 186° South 457 526 35,000 -300 Level FlightAware ADS-B (KMCO)
09:07PM 24.6525 -82.4408 185° South 463 533 32,100 -480 Descending Miami Center
09:08PM 24.6396 -82.4602 184° South  Level FlightAware Approximate
09:08PM 24.5181 -82.4575 186° South 463 533 30,000  Level Miami Center
09:09PM 24.5208 -82.4703 184° South  Level FlightAware Approximate
09:09PM 24.3986 -82.4728 187° South 451 519 28,200  Level Miami Center
09:10PM 24.4020 -82.4803 184° South  Level FlightAware Approximate
09:10PM 24.2811 -82.4878 187° South 440 506 26,400  Level Miami Center
09:11PM 24.2830 -82.4833 180° South  Level FlightAware Approximate
09:11PM 24.1742 -82.5014 187° South 420 483 24,700  Level Miami Center
09:12PM 24.1641 -82.4911 185° South  Level FlightAware Approximate
09:12PM 24.0631 -82.5144 186° South 406 467 23,100  Level Miami Center
09:14PM 23.8867 -82.5005 173° South  Level FlightAware Approximate
09:21PM 23.0586 -82.4017 170° South  Level FlightAware Approximate
09:22PM 22.9891 -82.4091 180° South  Level Estimated
09:23PM 22.9891 -82.4091 180° South  Level Estimated
09:24PM 22.9891 -82.4091 180° South  Level Estimated
09:25PM 22.9891 -82.4091 180° South  Level Estimated
09:26PM 22.9891 -82.4091 180° South  Level Estimated
09:27PM 22.9891 -82.4091 180° South  Level Estimated
09:28PM 22.9891 -82.4091 180° South  Level Estimated
09:29PM 22.9891 -82.4091 180° South  Level Estimated
09:30PM 22.9891 -82.4091 180° South  Level Estimated
09:31PM 22.9891 -82.4091 180° South  Level Estimated
09:32PM 22.9891 -82.4091 180° South  Level Estimated
09:33PM 22.9891 -82.4091 180° South  Level Estimated
09:34PM 22.9891 -82.4091 180° South  Level Estimated
09:35PM 22.9891 -82.4091 180° South  Level Estimated
09:36PM 22.9891 -82.4091 180° South  Level Estimated
09:37PM 22.9891 -82.4091 180° South  Level Estimated
09:38PM 22.9891 -82.4091 180° South  Level Estimated
09:39PM 22.9891 -82.4091 180° South  Level Estimated
09:40PM 22.9891 -82.4091 180° South  Level Estimated
09:41PM 22.9891 -82.4091 180° South  Level Estimated
09:42PM 22.9891 -82.4091 180° South  Level Estimated
09:43PM 22.9891 -82.4091 180° South  Level Estimated